createdAt,value
2019-04-28T00:00:15.290Z,6.97
2019-04-28T00:02:45.081Z,9.60
2019-04-28T00:05:15.476Z,6.47
2019-04-28T00:07:45.011Z,10.93
2019-04-28T00:10:15.943Z,10.57
2019-04-28T00:12:45.490Z,11.17
2019-04-28T00:15:16.150Z,12.00
2019-04-28T00:17:46.064Z,5.63
2019-04-28T00:20:26.745Z,8.07
2019-04-28T00:23:01.398Z,9.87
2019-04-28T00:25:34.247Z,6.13
2019-04-28T00:28:03.783Z,8.77
2019-04-28T00:30:33.693Z,10.17
2019-04-28T00:33:04.872Z,7.20
2019-04-28T00:35:35.301Z,7.10
2019-04-28T00:38:04.983Z,7.60
2019-04-28T00:40:34.742Z,9.07
2019-04-28T00:43:04.666Z,7.03
2019-04-28T00:45:34.285Z,9.63
2019-04-28T00:48:04.145Z,6.67
2019-04-28T00:50:34.983Z,7.40
2019-04-28T00:53:04.521Z,12.57
2019-04-28T00:55:34.840Z,10.10
2019-04-28T00:58:04.767Z,9.43
2019-04-28T01:00:36.032Z,9.63
2019-04-28T01:03:05.566Z,9.37
2019-04-28T01:05:35.924Z,6.47
2019-04-28T01:08:06.076Z,12.73
2019-04-28T01:10:36.040Z,7.00
2019-04-28T01:13:07.264Z,11.93
2019-04-28T01:15:54.573Z,5.83
2019-04-28T01:18:31.365Z,8.60
2019-04-28T01:21:01.437Z,10.47
2019-04-28T01:23:31.118Z,9.70
2019-04-28T01:26:00.695Z,8.20
2019-04-28T01:28:30.744Z,10.13
2019-04-28T01:31:21.278Z,8.53
2019-04-28T01:34:10.917Z,10.80
2019-04-28T01:36:40.827Z,7.90
2019-04-28T01:39:10.360Z,9.67
2019-04-28T01:41:40.234Z,11.47
2019-04-28T01:44:10.292Z,5.93
2019-04-28T01:46:40.057Z,9.73
2019-04-28T01:49:09.810Z,6.63
2019-04-28T01:51:41.443Z,11.13
2019-04-28T01:54:11.794Z,8.50
2019-04-28T01:56:41.456Z,11.67
2019-04-28T01:59:10.982Z,10.23
2019-04-28T02:01:40.758Z,6.13
2019-04-28T02:04:10.304Z,11.27
2019-04-28T02:06:40.030Z,7.90
2019-04-28T02:09:10.643Z,10.73
2019-04-28T02:11:41.184Z,10.70
2019-04-28T02:14:11.361Z,10.17
2019-04-28T02:16:40.917Z,8.87
2019-04-28T02:19:10.820Z,10.90
2019-04-28T02:21:44.947Z,10.63
2019-04-28T02:24:31.524Z,9.90
2019-04-28T02:27:01.718Z,12.37
2019-04-28T02:29:31.969Z,11.63
2019-04-28T02:32:02.484Z,11.27
2019-04-28T02:34:32.288Z,10.63
2019-04-28T02:37:02.347Z,8.27
2019-04-28T02:39:32.111Z,10.13
2019-04-28T02:42:02.001Z,7.37
2019-04-28T02:44:35.107Z,10.05
2019-04-28T02:47:03.810Z,10.63
2019-04-28T02:49:47.150Z,8.73
2019-04-28T02:52:20.998Z,8.33
2019-04-28T02:54:50.977Z,12.60
2019-04-28T02:57:21.065Z,8.30
2019-04-28T02:59:51.169Z,8.27
2019-04-28T03:02:21.112Z,11.80
2019-04-28T03:04:51.428Z,11.40
2019-04-28T03:07:21.768Z,7.30
2019-04-28T03:09:52.276Z,7.93
2019-04-28T03:12:22.575Z,6.67
2019-04-28T03:14:52.123Z,8.53
2019-04-28T03:17:21.689Z,13.00
2019-04-28T03:19:51.975Z,14.00
2019-04-28T03:22:21.470Z,9.33
2019-04-28T03:24:53.162Z,10.10
2019-04-28T03:27:25.211Z,9.23
2019-04-28T03:30:00.846Z,10.20
2019-04-28T03:32:45.782Z,8.90
2019-04-28T03:35:04.260Z,9.40
2019-04-28T03:37:34.216Z,7.77
2019-04-28T03:40:05.143Z,10.33
2019-04-28T03:42:34.702Z,10.47
2019-04-28T03:45:06.828Z,11.40
2019-04-28T03:47:36.940Z,10.83
2019-04-28T03:50:10.244Z,7.50
2019-04-28T03:52:41.401Z,8.67
2019-04-28T03:55:11.716Z,8.17
2019-04-28T03:57:41.615Z,8.77
2019-04-28T04:00:12.063Z,8.33
2019-04-28T04:02:41.721Z,10.60
2019-04-28T04:05:11.939Z,10.03
2019-04-28T04:07:43.255Z,12.27
2019-04-28T04:10:24.983Z,6.70
2019-04-28T04:12:56.326Z,7.53
2019-04-28T04:15:30.937Z,8.73
2019-04-28T04:18:05.394Z,9.20
2019-04-28T04:20:34.941Z,6.50
2019-04-28T04:23:04.494Z,10.77
2019-04-28T04:25:34.339Z,10.57
2019-04-28T04:28:04.131Z,7.93
2019-04-28T04:30:33.820Z,16.23
2019-04-28T04:33:03.393Z,5.87
2019-04-28T04:35:33.142Z,10.30
2019-04-28T04:38:03.285Z,12.37
2019-04-28T04:40:33.167Z,8.93
2019-04-28T04:43:02.731Z,7.57
2019-04-28T04:45:32.293Z,10.20
2019-04-28T04:48:02.087Z,7.63
2019-04-28T04:50:31.776Z,8.03
2019-04-28T04:53:02.677Z,8.80
2019-04-28T04:55:32.918Z,11.40
2019-04-28T04:58:02.759Z,5.00
2019-04-28T05:00:33.949Z,8.57
2019-04-28T05:03:05.447Z,10.97
2019-04-28T05:05:36.648Z,6.80
2019-04-28T05:08:06.385Z,9.27
2019-04-28T05:10:35.929Z,8.50
2019-04-28T05:13:05.832Z,9.67
2019-04-28T05:15:36.146Z,6.43
2019-04-28T05:18:05.972Z,8.70
2019-04-28T05:20:35.660Z,6.40
2019-04-28T05:23:12.899Z,10.07
2019-04-28T05:25:43.817Z,8.57
2019-04-28T05:28:13.600Z,9.37
2019-04-28T05:30:43.562Z,9.30
2019-04-28T05:33:15.076Z,9.10
2019-04-28T05:35:44.979Z,8.17
2019-04-28T05:38:14.718Z,10.40
2019-04-28T05:40:44.272Z,6.70
2019-04-28T05:43:14.136Z,7.20
2019-04-28T05:45:44.039Z,5.80
2019-04-28T05:48:13.773Z,7.30
2019-04-28T05:50:45.037Z,7.80
2019-04-28T05:53:22.220Z,8.63
2019-04-28T05:55:51.619Z,14.40
2019-04-28T05:58:22.802Z,10.70
2019-04-28T06:00:56.900Z,9.47
2019-04-28T06:03:30.198Z,6.47
2019-04-28T06:06:00.052Z,12.77
2019-04-28T06:08:50.829Z,10.30
2019-04-28T06:11:36.631Z,10.73
2019-04-28T06:14:06.339Z,9.53
2019-04-28T06:16:35.889Z,9.20
2019-04-28T06:19:05.760Z,8.87
2019-04-28T06:21:35.376Z,10.10
2019-04-28T06:24:05.085Z,8.97
2019-04-28T06:26:35.080Z,7.93
2019-04-28T06:29:04.792Z,8.67
2019-04-28T06:31:34.898Z,10.20
2019-04-28T06:34:04.620Z,8.23
2019-04-28T06:36:35.350Z,9.08
2019-04-28T06:39:07.748Z,8.60
2019-04-28T06:41:37.456Z,9.30
2019-04-28T06:44:07.051Z,8.40
2019-04-28T06:46:37.055Z,6.20
2019-04-28T06:49:06.754Z,10.30
2019-04-28T06:51:36.298Z,9.63
2019-04-28T06:54:06.070Z,7.20
2019-04-28T06:56:35.620Z,10.57
2019-04-28T06:59:06.412Z,9.80
2019-04-28T07:01:36.517Z,7.77
2019-04-28T07:04:06.239Z,10.10
2019-04-28T07:06:35.949Z,4.53
2019-04-28T07:09:07.481Z,5.97
2019-04-28T07:11:38.053Z,7.77
2019-04-28T07:14:07.927Z,6.70
2019-04-28T07:16:37.625Z,9.37
2019-04-28T07:19:07.345Z,7.07
2019-04-28T07:21:38.700Z,7.03
2019-04-28T07:24:09.143Z,7.17
2019-04-28T07:26:38.937Z,7.23
2019-04-28T07:29:08.478Z,5.90
2019-04-28T07:31:38.345Z,5.73
2019-04-28T07:34:08.267Z,7.20
2019-04-28T07:36:37.811Z,6.27
2019-04-28T07:39:08.938Z,8.17
2019-04-28T07:41:38.477Z,7.67
2019-04-28T07:44:27.443Z,7.97
2019-04-28T07:46:57.935Z,6.47
2019-04-28T07:49:27.483Z,9.13
2019-04-28T07:52:10.628Z,9.60
2019-04-28T07:54:40.252Z,5.87
2019-04-28T07:57:09.863Z,8.17
2019-04-28T07:59:39.449Z,7.10
2019-04-28T08:02:09.262Z,8.00
2019-04-28T08:04:38.814Z,4.90
2019-04-28T08:07:09.083Z,7.50
2019-04-28T08:09:38.633Z,6.93
2019-04-28T08:12:08.343Z,8.97
2019-04-28T08:14:37.885Z,7.83
2019-04-28T08:17:07.713Z,9.17
2019-04-28T08:19:37.260Z,9.07
2019-04-28T08:22:07.448Z,9.50
2019-04-28T08:24:37.381Z,6.30
2019-04-28T08:27:07.014Z,9.40
2019-04-28T08:29:36.564Z,5.10
2019-04-28T08:32:14.011Z,7.60
2019-04-28T08:34:43.582Z,9.87
2019-04-28T08:37:13.138Z,8.70
2019-04-28T08:39:43.077Z,5.87
2019-04-28T08:42:12.785Z,9.90
2019-04-28T08:44:42.341Z,6.50
2019-04-28T08:47:12.035Z,8.60
2019-04-28T08:49:41.714Z,7.97
2019-04-28T08:52:11.338Z,8.47
2019-04-28T08:54:40.907Z,6.63
2019-04-28T08:57:10.468Z,8.13
2019-04-28T08:59:40.528Z,10.67
2019-04-28T09:02:10.280Z,6.47
2019-04-28T09:04:39.977Z,13.53
2019-04-28T09:07:09.535Z,8.00
2019-04-28T09:09:39.098Z,6.53
2019-04-28T09:12:08.751Z,6.83
2019-04-28T09:14:38.419Z,6.47
2019-04-28T09:17:08.290Z,8.87
2019-04-28T09:19:39.019Z,7.63
2019-04-28T09:22:08.859Z,6.33
2019-04-28T09:24:38.561Z,7.23
2019-04-28T09:27:08.123Z,9.53
2019-04-28T09:29:37.889Z,7.67
2019-04-28T09:32:08.183Z,10.17
2019-04-28T09:34:38.198Z,7.47
2019-04-28T09:37:07.751Z,7.70
2019-04-28T09:39:47.747Z,7.43
2019-04-28T09:42:28.989Z,6.50
2019-04-28T09:45:01.620Z,6.17
2019-04-28T09:47:31.414Z,6.57
2019-04-28T09:50:00.981Z,8.27
2019-04-28T09:52:30.830Z,7.47
2019-04-28T09:55:00.558Z,4.90
2019-04-28T09:57:30.095Z,8.57
2019-04-28T09:59:59.724Z,7.23
2019-04-28T10:02:29.362Z,6.50
2019-04-28T10:04:59.167Z,4.73
2019-04-28T10:07:28.724Z,5.33
2019-04-28T10:09:58.277Z,4.40
2019-04-28T10:12:28.103Z,5.93
2019-04-28T10:14:57.668Z,7.53
2019-04-28T10:17:27.228Z,6.80
2019-04-28T10:19:57.017Z,5.40
2019-04-28T10:22:26.563Z,3.63
2019-04-28T10:24:56.448Z,4.50
2019-04-28T10:27:26.968Z,5.20
2019-04-28T10:29:56.584Z,5.17
2019-04-28T10:32:26.363Z,4.63
2019-04-28T10:34:55.922Z,9.77
2019-04-28T10:37:25.503Z,8.23
2019-04-28T10:39:59.176Z,5.63
2019-04-28T10:42:28.736Z,3.57
2019-04-28T10:44:58.869Z,6.53
2019-04-28T10:47:29.532Z,4.13
2019-04-28T10:49:59.109Z,5.13
2019-04-28T10:52:28.714Z,5.70
2019-04-28T10:54:59.066Z,4.30
2019-04-28T10:57:28.698Z,3.50
2019-04-28T10:59:58.252Z,4.50
2019-04-28T11:02:27.823Z,4.97
2019-04-28T11:05:08.423Z,5.17
2019-04-28T11:07:33.995Z,9.40
2019-04-28T11:10:15.570Z,8.90
2019-04-28T11:12:45.465Z,7.50
2019-04-28T11:15:17.752Z,5.40
2019-04-28T11:17:48.221Z,6.47
2019-04-28T11:20:17.886Z,5.07
2019-04-28T11:22:57.094Z,4.97
2019-04-28T11:25:31.751Z,3.20
2019-04-28T11:28:03.033Z,3.07
2019-04-28T11:30:32.684Z,2.77
2019-04-28T11:33:10.971Z,1.70
2019-04-28T11:35:44.796Z,5.27
2019-04-28T11:38:14.347Z,2.80
2019-04-28T11:40:44.402Z,2.40
2019-04-28T11:43:13.952Z,1.37
2019-04-28T11:45:43.824Z,2.43
2019-04-28T11:48:13.381Z,7.97
2019-04-28T11:50:43.227Z,1.30
2019-04-28T11:53:12.771Z,2.63
2019-04-28T11:55:43.465Z,1.80
2019-04-28T11:58:13.014Z,2.47
2019-04-28T12:00:42.735Z,1.83
2019-04-28T12:03:12.589Z,2.30
2019-04-28T12:05:43.888Z,3.53
2019-04-28T12:08:13.439Z,3.67
2019-04-28T12:10:53.602Z,3.98
2019-04-28T12:13:33.784Z,4.00
2019-04-28T12:16:21.474Z,7.63
2019-04-28T12:18:52.671Z,5.27
2019-04-28T12:21:22.375Z,3.33
2019-04-28T12:23:52.245Z,5.70
2019-04-28T12:26:21.877Z,3.57
2019-04-28T12:28:52.073Z,2.97
2019-04-28T12:31:21.627Z,2.80
2019-04-28T12:33:51.182Z,6.07
2019-04-28T12:36:20.938Z,4.00
2019-04-28T12:38:50.686Z,3.05
2019-04-28T12:41:20.260Z,3.10
2019-04-28T12:43:49.956Z,4.10
2019-04-28T12:46:19.818Z,3.33
2019-04-28T12:48:51.015Z,5.70
2019-04-28T12:51:21.433Z,4.00
2019-04-28T12:53:52.621Z,4.00
2019-04-28T12:56:22.350Z,2.93
2019-04-28T12:58:53.533Z,5.40
2019-04-28T13:01:25.810Z,4.47
2019-04-28T13:03:57.817Z,2.90
2019-04-28T13:06:27.734Z,3.43
2019-04-28T13:08:57.423Z,4.80
2019-04-28T13:11:27.140Z,4.47
2019-04-28T13:13:56.688Z,3.83
2019-04-28T13:16:26.995Z,6.67
2019-04-28T13:18:57.084Z,3.53
2019-04-28T13:21:26.647Z,1.97
2019-04-28T13:23:56.296Z,2.40
2019-04-28T13:26:26.011Z,5.30
2019-04-28T13:28:55.581Z,1.70
2019-04-28T13:31:25.216Z,3.00
2019-04-28T13:33:56.838Z,1.93
2019-04-28T13:36:26.615Z,1.53
2019-04-28T13:38:58.651Z,2.23
2019-04-28T13:41:28.360Z,1.07
2019-04-28T13:43:58.010Z,2.37
2019-04-28T13:46:28.456Z,2.43
2019-04-28T13:48:58.330Z,1.17
2019-04-28T13:51:27.917Z,2.07
2019-04-28T13:53:57.487Z,1.53
2019-04-28T13:56:27.426Z,2.53
2019-04-28T13:58:58.969Z,2.27
2019-04-28T14:01:46.050Z,1.77
2019-04-28T14:04:20.720Z,2.33
2019-04-28T14:06:51.978Z,1.90
2019-04-28T14:09:21.555Z,2.10
2019-04-28T14:11:51.277Z,1.93
2019-04-28T14:14:20.966Z,2.97
2019-04-28T14:16:50.520Z,4.17
2019-04-28T14:19:20.458Z,1.83
2019-04-28T14:21:49.957Z,1.63
2019-04-28T14:24:19.545Z,2.37
2019-04-28T14:26:49.326Z,2.17
2019-04-28T14:29:19.265Z,1.90
2019-04-28T14:31:48.937Z,1.07
2019-04-28T14:34:19.032Z,2.13
2019-04-28T14:36:48.661Z,1.50
2019-04-28T14:39:18.688Z,1.63
2019-04-28T14:41:48.723Z,2.77
2019-04-28T14:44:18.432Z,6.87
2019-04-28T14:46:48.219Z,3.40
2019-04-28T14:49:17.891Z,2.73
2019-04-28T14:51:47.425Z,1.83
2019-04-28T14:54:17.842Z,1.17
2019-04-28T14:56:47.518Z,0.90
2019-04-28T14:59:17.028Z,1.10
2019-04-28T15:02:05.174Z,0.97
2019-04-28T15:04:52.634Z,2.57
2019-04-28T15:07:40.785Z,0.93
2019-04-28T15:10:19.719Z,0.67
2019-04-28T15:12:49.327Z,0.67
2019-04-28T15:15:20.199Z,1.23
2019-04-28T15:17:50.113Z,1.23
2019-04-28T15:20:19.849Z,0.87
2019-04-28T15:22:49.883Z,4.37
2019-04-28T15:25:19.446Z,1.17
2019-04-28T15:27:49.079Z,2.30
2019-04-28T15:30:18.721Z,1.17
2019-04-28T15:32:48.451Z,1.20
2019-04-28T15:35:18.446Z,1.33
2019-04-28T15:37:48.275Z,0.83
2019-04-28T15:40:18.460Z,1.10
2019-04-28T15:42:48.409Z,1.50
2019-04-28T15:45:18.407Z,0.70
2019-04-28T15:47:48.047Z,1.33
2019-04-28T15:50:18.031Z,1.57
2019-04-28T15:52:47.810Z,1.20
2019-04-28T15:55:22.445Z,0.90
2019-04-28T15:57:52.129Z,1.10
2019-04-28T16:00:22.138Z,2.10
2019-04-28T16:02:51.674Z,2.20
2019-04-28T16:05:21.461Z,1.07
2019-04-28T16:07:51.099Z,0.77
2019-04-28T16:10:20.884Z,0.67
2019-04-28T16:12:50.583Z,2.63
2019-04-28T16:15:20.427Z,1.10
2019-04-28T16:17:50.205Z,1.00
2019-04-28T16:20:19.760Z,1.10
2019-04-28T16:22:49.630Z,2.13
2019-04-28T16:25:19.264Z,1.30
2019-04-28T16:27:49.249Z,8.63
2019-04-28T16:30:18.870Z,6.90
2019-04-28T16:32:49.277Z,3.40
2019-04-28T16:35:19.003Z,4.33
2019-04-28T16:37:48.562Z,1.90
2019-04-28T16:40:19.068Z,1.43
2019-04-28T16:42:48.736Z,2.80
2019-04-28T16:45:18.737Z,2.33
2019-04-28T16:47:48.710Z,1.40
2019-04-28T16:50:18.420Z,1.83
2019-04-28T16:52:48.781Z,3.20
2019-04-28T16:55:19.976Z,1.50
2019-04-28T16:58:00.584Z,1.93
2019-04-28T17:00:36.151Z,2.60
2019-04-28T17:03:05.896Z,2.10
2019-04-28T17:05:35.474Z,2.37
2019-04-28T17:08:05.124Z,0.80
2019-04-28T17:10:34.672Z,1.67
2019-04-28T17:13:04.222Z,0.77
2019-04-28T17:15:33.915Z,0.57
2019-04-28T17:18:03.684Z,1.20
2019-04-28T17:20:33.318Z,1.00
2019-04-28T17:23:03.025Z,2.53
2019-04-28T17:25:32.612Z,8.00
2019-04-28T17:28:02.704Z,1.63
2019-04-28T17:30:32.521Z,1.10
2019-04-28T17:33:02.598Z,1.30
2019-04-28T17:35:33.546Z,1.40
2019-04-28T17:38:06.651Z,2.47
2019-04-28T17:40:35.878Z,0.97
2019-04-28T17:43:05.966Z,3.27
2019-04-28T17:45:35.590Z,2.17
2019-04-28T17:48:09.194Z,2.77
2019-04-28T17:50:39.094Z,2.00
2019-04-28T17:53:08.654Z,1.80
2019-04-28T17:55:39.553Z,1.80
2019-04-28T17:58:09.186Z,2.33
2019-04-28T18:00:54.145Z,1.93
2019-04-28T18:03:23.462Z,3.77
2019-04-28T18:08:36.084Z,1.47
2019-04-28T18:11:06.073Z,0.97
2019-04-28T18:13:35.830Z,6.83
2019-04-28T18:16:05.224Z,3.63
2019-04-28T18:18:39.078Z,2.33
2019-04-28T18:21:08.827Z,1.10
2019-04-28T18:23:38.378Z,2.10
2019-04-28T18:26:08.415Z,2.10
2019-04-28T18:28:38.000Z,19.77
2019-04-28T18:31:13.231Z,11.50
2019-04-28T18:34:00.257Z,3.00
2019-04-28T18:36:34.224Z,3.20
2019-04-28T18:39:06.108Z,2.73
2019-04-28T18:41:53.499Z,2.60
2019-04-28T18:44:23.478Z,2.60
2019-04-28T18:46:53.186Z,3.70
2019-04-28T18:49:22.744Z,2.90
2019-04-28T18:51:52.432Z,5.83
2019-04-28T18:54:21.987Z,7.00
2019-04-28T18:56:51.555Z,6.33
2019-04-28T18:59:24.186Z,4.43
2019-04-28T19:01:56.825Z,3.47
2019-04-28T19:04:26.483Z,3.60
2019-04-28T19:07:04.950Z,4.27
2019-04-28T19:09:37.646Z,12.93
2019-04-28T19:12:24.966Z,12.27
2019-04-28T19:14:56.406Z,7.37
2019-04-28T19:17:30.486Z,5.97
2019-04-28T19:20:00.039Z,3.97
2019-04-28T19:22:29.584Z,5.07
2019-04-28T19:24:59.287Z,8.27
2019-04-28T19:27:28.871Z,6.40
2019-04-28T19:29:58.424Z,6.63
2019-04-28T19:32:28.052Z,5.77
2019-04-28T19:34:57.607Z,8.33
2019-04-28T19:37:27.512Z,4.70
2019-04-28T19:39:57.169Z,6.67
2019-04-28T19:42:26.865Z,7.30
2019-04-28T19:44:57.023Z,5.87
2019-04-28T19:47:26.588Z,6.30
2019-04-28T19:49:56.147Z,5.93
2019-04-28T19:52:26.167Z,5.83
2019-04-28T19:55:15.171Z,8.07
2019-04-28T19:57:46.480Z,5.40
2019-04-28T20:00:24.803Z,4.77
2019-04-28T20:02:54.406Z,6.30
2019-04-28T20:05:24.052Z,5.33
2019-04-28T20:07:53.731Z,4.93
2019-04-28T20:10:23.293Z,5.43
2019-04-28T20:12:52.997Z,7.60
2019-04-28T20:15:22.572Z,7.77
2019-04-28T20:17:52.300Z,5.60
2019-04-28T20:20:21.832Z,9.30
2019-04-28T20:22:51.376Z,6.90
2019-04-28T20:25:21.075Z,7.10
2019-04-28T20:27:50.649Z,6.10
2019-04-28T20:30:20.376Z,5.07
2019-04-28T20:32:50.034Z,6.13
2019-04-28T20:35:23.864Z,6.00
2019-04-28T20:37:55.419Z,7.57
2019-04-28T20:40:35.506Z,6.43
2019-04-28T20:43:06.710Z,6.67
2019-04-28T20:45:36.262Z,7.87
2019-04-28T20:48:06.094Z,5.87
2019-04-28T20:50:35.647Z,7.77
2019-04-28T20:53:05.217Z,7.53
2019-04-28T20:55:34.869Z,6.83
2019-04-28T20:58:04.517Z,5.20
2019-04-28T21:00:34.063Z,6.73
2019-04-28T21:03:04.117Z,5.20
2019-04-28T21:05:33.664Z,6.70
2019-04-28T21:08:04.290Z,7.20
2019-04-28T21:10:38.372Z,5.27
2019-04-28T21:13:05.666Z,6.93
2019-04-28T21:15:35.347Z,7.20
2019-04-28T21:18:05.034Z,5.87
2019-04-28T21:20:35.095Z,6.97
2019-04-28T21:23:04.716Z,10.00
2019-04-28T21:25:34.723Z,7.73
2019-04-28T21:28:04.782Z,7.73
2019-04-28T21:30:34.345Z,9.97
2019-04-28T21:33:03.944Z,7.43
2019-04-28T21:35:33.510Z,6.53
2019-04-28T21:38:03.292Z,6.83
2019-04-28T21:40:33.318Z,7.13
2019-04-28T21:43:16.726Z,6.33
2019-04-28T21:45:53.945Z,6.67
2019-04-28T21:48:35.037Z,8.20
2019-04-28T21:51:05.582Z,8.03
2019-04-28T21:53:35.201Z,7.03
2019-04-28T21:56:05.825Z,7.83
2019-04-28T21:58:35.466Z,6.50
2019-04-28T22:01:05.811Z,6.77
2019-04-28T22:03:35.420Z,7.17
2019-04-28T22:06:05.485Z,8.20
2019-04-28T22:08:35.430Z,6.40
2019-04-28T22:11:05.014Z,7.30
2019-04-28T22:13:34.818Z,9.10
2019-04-28T22:16:04.354Z,5.67
2019-04-28T22:18:34.223Z,6.37
2019-04-28T22:21:03.934Z,6.07
2019-04-28T22:23:45.110Z,6.47
2019-04-28T22:26:16.480Z,5.87
2019-04-28T22:28:46.050Z,7.27
2019-04-28T22:31:15.690Z,7.23
2019-04-28T22:33:45.241Z,7.23
2019-04-28T22:36:15.110Z,8.43
2019-04-28T22:38:44.651Z,8.03
2019-04-28T22:41:14.222Z,11.10
2019-04-28T22:43:44.416Z,7.03
2019-04-28T22:46:13.959Z,6.17
2019-04-28T22:48:44.231Z,5.47
2019-04-28T22:51:13.779Z,6.93
2019-04-28T22:53:43.540Z,6.27
2019-04-28T22:56:22.967Z,7.40
2019-04-28T22:58:54.150Z,6.20
2019-04-28T23:01:32.029Z,5.60
2019-04-28T23:04:09.720Z,5.67
2019-04-28T23:06:39.343Z,7.17
2019-04-28T23:09:11.607Z,5.40
2019-04-28T23:11:41.150Z,10.27
2019-04-28T23:14:11.015Z,8.53
2019-04-28T23:16:40.570Z,7.67
2019-04-28T23:19:11.830Z,6.53
2019-04-28T23:21:53.050Z,7.37
2019-04-28T23:24:23.068Z,6.80
2019-04-28T23:26:52.686Z,8.27
2019-04-28T23:29:22.249Z,6.17
2019-04-28T23:31:52.487Z,6.30
2019-04-28T23:34:22.048Z,11.67
2019-04-28T23:36:51.606Z,13.23
2019-04-28T23:39:21.579Z,10.90
2019-04-28T23:41:55.909Z,13.97
2019-04-28T23:44:25.656Z,15.03
2019-04-28T23:46:57.095Z,15.90
2019-04-28T23:49:29.047Z,15.13
2019-04-28T23:52:01.196Z,14.03
2019-04-28T23:54:30.818Z,15.10
2019-04-28T23:57:00.368Z,15.00
2019-04-28T23:59:29.953Z,18.50
